sensor_id;sensor_type;location;lat;lon;timestamp;P1;durP1;ratioP1;P2;durP2;ratioP2
60336;SDS011;46978;50.288;28.624;2024-03-23T00:55:02;17.30;;;10.36;;
60336;SDS011;46978;50.288;28.624;2024-03-23T00:56:04;18.80;;;10.94;;
60336;SDS011;46978;50.288;28.624;2024-03-23T00:57:05;19.07;;;10.82;;
60336;SDS011;46978;50.288;28.624;2024-03-23T00:58:07;20.92;;;11.76;;
60336;SDS011;46978;50.288;28.624;2024-03-23T00:59:09;20.23;;;11.92;;
60336;SDS011;46978;50.288;28.624;2024-03-23T01:00:11;19.49;;;11.57;;
60336;SDS011;46978;50.288;28.624;2024-03-23T01:01:14;19.34;;;11.86;;
60336;SDS011;46978;50.288;28.624;2024-03-23T01:02:15;20.70;;;11.61;;
60336;SDS011;46978;50.288;28.624;2024-03-23T01:03:17;16.74;;;10.59;;
60336;SDS011;46978;50.288;28.624;2024-03-23T01:04:18;17.45;;;11.09;;
60336;SDS011;46978;50.288;28.624;2024-03-23T01:05:20;17.16;;;11.25;;
60336;SDS011;46978;50.288;28.624;2024-03-23T01:06:21;18.48;;;11.37;;
60336;SDS011;46978;50.288;28.624;2024-03-23T01:07:23;19.74;;;11.90;;
60336;SDS011;46978;50.288;28.624;2024-03-23T01:08:25;19.25;;;11.26;;
60336;SDS011;46978;50.288;28.624;2024-03-23T01:09:26;19.89;;;10.98;;
60336;SDS011;46978;50.288;28.624;2024-03-23T01:10:28;18.91;;;10.82;;
60336;SDS011;46978;50.288;28.624;2024-03-23T01:11:29;18.59;;;11.31;;
60336;SDS011;46978;50.288;28.624;2024-03-23T01:12:31;20.05;;;11.75;;
60336;SDS011;46978;50.288;28.624;2024-03-23T01:13:33;20.32;;;11.76;;
60336;SDS011;46978;50.288;28.624;2024-03-23T01:14:34;21.08;;;12.04;;
60336;SDS011;46978;50.288;28.624;2024-03-23T01:15:36;19.98;;;11.63;;
60336;SDS011;46978;50.288;28.624;2024-03-23T01:16:37;19.29;;;11.84;;
60336;SDS011;46978;50.288;28.624;2024-03-23T01:17:39;19.45;;;11.69;;
60336;SDS011;46978;50.288;28.624;2024-03-23T01:18:40;20.87;;;12.49;;
60336;SDS011;46978;50.288;28.624;2024-03-23T01:19:42;19.00;;;11.95;;
60336;SDS011;46978;50.288;28.624;2024-03-23T01:20:44;18.61;;;11.88;;
60336;SDS011;46978;50.288;28.624;2024-03-23T01:21:46;19.84;;;11.55;;
60336;SDS011;46978;50.288;28.624;2024-03-23T01:22:47;21.24;;;11.98;;
60336;SDS011;46978;50.288;28.624;2024-03-23T01:23:49;20.70;;;11.82;;
60336;SDS011;46978;50.288;28.624;2024-03-23T01:24:50;20.14;;;12.06;;
60336;SDS011;46978;50.288;28.624;2024-03-23T01:25:52;19.35;;;11.64;;
60336;SDS011;46978;50.288;28.624;2024-03-23T01:26:54;21.44;;;12.32;;
60336;SDS011;46978;50.288;28.624;2024-03-23T01:27:56;19.72;;;11.91;;
60336;SDS011;46978;50.288;28.624;2024-03-23T01:28:57;21.11;;;12.16;;
60336;SDS011;46978;50.288;28.624;2024-03-23T01:29:59;21.54;;;12.25;;
60336;SDS011;46978;50.288;28.624;2024-03-23T01:31:01;20.93;;;12.41;;
60336;SDS011;46978;50.288;28.624;2024-03-23T01:32:03;20.99;;;12.72;;
60336;SDS011;46978;50.288;28.624;2024-03-23T01:33:05;23.31;;;12.85;;
60336;SDS011;46978;50.288;28.624;2024-03-23T01:34:06;20.20;;;12.14;;
60336;SDS011;46978;50.288;28.624;2024-03-23T01:35:08;20.89;;;12.32;;
60336;SDS011;46978;50.288;28.624;2024-03-23T01:36:10;20.50;;;12.42;;
60336;SDS011;46978;50.288;28.624;2024-03-23T01:37:11;23.29;;;13.53;;
60336;SDS011;46978;50.288;28.624;2024-03-23T01:38:13;22.01;;;11.82;;
60336;SDS011;46978;50.288;28.624;2024-03-23T01:39:14;19.85;;;12.46;;
60336;SDS011;46978;50.288;28.624;2024-03-23T01:40:16;20.54;;;12.15;;
60336;SDS011;46978;50.288;28.624;2024-03-23T01:41:18;22.29;;;12.24;;
60336;SDS011;46978;50.288;28.624;2024-03-23T01:42:19;19.90;;;12.24;;
60336;SDS011;46978;50.288;28.624;2024-03-23T01:43:21;22.32;;;12.81;;
60336;SDS011;46978;50.288;28.624;2024-03-23T01:44:22;20.38;;;12.21;;
60336;SDS011;46978;50.288;28.624;2024-03-23T01:45:24;24.02;;;13.43;;
60336;SDS011;46978;50.288;28.624;2024-03-23T01:46:26;23.35;;;13.37;;
60336;SDS011;46978;50.288;28.624;2024-03-23T01:47:28;21.31;;;12.81;;
60336;SDS011;46978;50.288;28.624;2024-03-23T01:48:30;20.91;;;13.08;;
60336;SDS011;46978;50.288;28.624;2024-03-23T01:49:31;22.53;;;13.39;;
60336;SDS011;46978;50.288;28.624;2024-03-23T01:50:34;23.25;;;13.93;;
60336;SDS011;46978;50.288;28.624;2024-03-23T01:51:36;22.12;;;12.39;;
60336;SDS011;46978;50.288;28.624;2024-03-23T01:52:38;22.58;;;12.57;;
60336;SDS011;46978;50.288;28.624;2024-03-23T01:53:40;20.43;;;11.95;;
60336;SDS011;46978;50.288;28.624;2024-03-23T01:54:42;21.00;;;12.62;;
60336;SDS011;46978;50.288;28.624;2024-03-23T01:55:44;23.93;;;12.27;;
60336;SDS011;46978;50.288;28.624;2024-03-23T01:56:46;21.93;;;12.96;;
60336;SDS011;46978;50.288;28.624;2024-03-23T01:57:48;20.63;;;12.91;;
60336;SDS011;46978;50.288;28.624;2024-03-23T01:58:50;20.54;;;12.51;;
60336;SDS011;46978;50.288;28.624;2024-03-23T01:59:52;19.94;;;12.78;;
60336;SDS011;46978;50.288;28.624;2024-03-23T02:00:53;22.03;;;12.54;;
60336;SDS011;46978;50.288;28.624;2024-03-23T02:01:55;21.50;;;13.09;;
60336;SDS011;46978;50.288;28.624;2024-03-23T02:02:56;22.38;;;13.48;;
60336;SDS011;46978;50.288;28.624;2024-03-23T02:03:58;21.61;;;12.60;;
60336;SDS011;46978;50.288;28.624;2024-03-23T02:05:00;23.85;;;13.53;;
60336;SDS011;46978;50.288;28.624;2024-03-23T02:06:02;24.27;;;13.30;;
60336;SDS011;46978;50.288;28.624;2024-03-23T02:07:06;20.87;;;13.04;;
60336;SDS011;46978;50.288;28.624;2024-03-23T02:08:08;23.45;;;13.68;;
60336;SDS011;46978;50.288;28.624;2024-03-23T02:09:10;23.04;;;13.38;;
60336;SDS011;46978;50.288;28.624;2024-03-23T02:10:12;22.38;;;12.43;;
60336;SDS011;46978;50.288;28.624;2024-03-23T02:11:14;20.88;;;13.07;;
60336;SDS011;46978;50.288;28.624;2024-03-23T02:12:15;20.77;;;13.21;;
60336;SDS011;46978;50.288;28.624;2024-03-23T02:13:18;21.03;;;12.66;;
60336;SDS011;46978;50.288;28.624;2024-03-23T02:14:20;24.53;;;13.63;;
60336;SDS011;46978;50.288;28.624;2024-03-23T02:15:22;20.83;;;13.61;;
60336;SDS011;46978;50.288;28.624;2024-03-23T02:16:23;23.82;;;13.48;;
60336;SDS011;46978;50.288;28.624;2024-03-23T02:18:29;23.35;;;14.13;;
60336;SDS011;46978;50.288;28.624;2024-03-23T02:19:31;22.31;;;13.59;;
60336;SDS011;46978;50.288;28.624;2024-03-23T02:20:33;23.38;;;14.51;;
60336;SDS011;46978;50.288;28.624;2024-03-23T02:21:34;23.79;;;13.73;;
60336;SDS011;46978;50.288;28.624;2024-03-23T02:22:39;24.00;;;14.09;;
60336;SDS011;46978;50.288;28.624;2024-03-23T02:23:41;28.29;;;14.63;;
60336;SDS011;46978;50.288;28.624;2024-03-23T02:24:42;22.71;;;13.10;;
60336;SDS011;46978;50.288;28.624;2024-03-23T02:27:05;24.00;;;14.34;;
60336;SDS011;46978;50.288;28.624;2024-03-23T02:28:07;22.84;;;13.55;;
60336;SDS011;46978;50.288;28.624;2024-03-23T02:29:09;24.01;;;13.81;;
60336;SDS011;46978;50.288;28.624;2024-03-23T02:30:11;22.97;;;13.57;;
60336;SDS011;46978;50.288;28.624;2024-03-23T02:31:13;25.45;;;14.28;;
60336;SDS011;46978;50.288;28.624;2024-03-23T02:32:14;25.70;;;14.43;;
60336;SDS011;46978;50.288;28.624;2024-03-23T02:33:16;23.84;;;13.92;;
60336;SDS011;46978;50.288;28.624;2024-03-23T02:34:18;24.34;;;14.15;;
60336;SDS011;46978;50.288;28.624;2024-03-23T02:35:19;24.43;;;13.81;;
60336;SDS011;46978;50.288;28.624;2024-03-23T02:36:21;25.24;;;14.12;;
60336;SDS011;46978;50.288;28.624;2024-03-23T02:37:23;23.06;;;14.12;;
60336;SDS011;46978;50.288;28.624;2024-03-23T02:38:24;25.04;;;14.23;;
60336;SDS011;46978;50.288;28.624;2024-03-23T02:39:26;24.06;;;13.99;;
60336;SDS011;46978;50.288;28.624;2024-03-23T02:40:28;28.02;;;15.67;;
60336;SDS011;46978;50.288;28.624;2024-03-23T02:41:30;23.77;;;14.58;;
60336;SDS011;46978;50.288;28.624;2024-03-23T02:42:31;26.51;;;15.14;;
60336;SDS011;46978;50.288;28.624;2024-03-23T02:43:33;25.68;;;14.78;;
60336;SDS011;46978;50.288;28.624;2024-03-23T02:44:34;25.61;;;14.81;;
60336;SDS011;46978;50.288;28.624;2024-03-23T02:45:36;26.35;;;15.75;;
60336;SDS011;46978;50.288;28.624;2024-03-23T02:46:38;23.24;;;13.94;;
60336;SDS011;46978;50.288;28.624;2024-03-23T02:47:39;30.14;;;15.16;;
60336;SDS011;46978;50.288;28.624;2024-03-23T02:48:41;24.59;;;14.76;;
60336;SDS011;46978;50.288;28.624;2024-03-23T02:49:43;23.56;;;14.50;;
60336;SDS011;46978;50.288;28.624;2024-03-23T02:50:44;25.64;;;15.16;;
60336;SDS011;46978;50.288;28.624;2024-03-23T02:51:46;27.11;;;14.86;;
60336;SDS011;46978;50.288;28.624;2024-03-23T02:52:47;28.09;;;15.26;;
60336;SDS011;46978;50.288;28.624;2024-03-23T02:53:49;28.50;;;15.14;;
60336;SDS011;46978;50.288;28.624;2024-03-23T02:54:51;27.51;;;14.99;;
60336;SDS011;46978;50.288;28.624;2024-03-23T02:55:53;27.40;;;14.91;;
60336;SDS011;46978;50.288;28.624;2024-03-23T02:56:54;26.47;;;14.77;;
60336;SDS011;46978;50.288;28.624;2024-03-23T02:57:56;27.34;;;15.04;;
60336;SDS011;46978;50.288;28.624;2024-03-23T02:58:57;26.65;;;15.20;;
60336;SDS011;46978;50.288;28.624;2024-03-23T03:00:02;27.56;;;15.28;;
60336;SDS011;46978;50.288;28.624;2024-03-23T03:01:04;26.54;;;15.47;;
60336;SDS011;46978;50.288;28.624;2024-03-23T03:02:05;27.16;;;15.04;;
60336;SDS011;46978;50.288;28.624;2024-03-23T03:03:07;28.11;;;14.54;;
60336;SDS011;46978;50.288;28.624;2024-03-23T03:04:08;26.01;;;15.32;;
60336;SDS011;46978;50.288;28.624;2024-03-23T03:05:10;27.29;;;14.59;;
60336;SDS011;46978;50.288;28.624;2024-03-23T03:06:12;28.30;;;14.64;;
60336;SDS011;46978;50.288;28.624;2024-03-23T03:07:17;27.14;;;15.36;;
60336;SDS011;46978;50.288;28.624;2024-03-23T03:08:19;29.12;;;15.79;;
60336;SDS011;46978;50.288;28.624;2024-03-23T03:09:20;26.11;;;15.56;;
60336;SDS011;46978;50.288;28.624;2024-03-23T03:10:22;26.40;;;15.55;;
60336;SDS011;46978;50.288;28.624;2024-03-23T03:11:24;27.83;;;15.70;;
60336;SDS011;46978;50.288;28.624;2024-03-23T03:12:25;27.76;;;15.66;;
60336;SDS011;46978;50.288;28.624;2024-03-23T03:13:27;26.07;;;14.98;;
60336;SDS011;46978;50.288;28.624;2024-03-23T03:14:28;27.26;;;15.09;;
60336;SDS011;46978;50.288;28.624;2024-03-23T03:15:30;24.70;;;14.89;;
60336;SDS011;46978;50.288;28.624;2024-03-23T03:16:32;26.24;;;15.53;;
60336;SDS011;46978;50.288;28.624;2024-03-23T03:17:34;24.53;;;14.77;;
60336;SDS011;46978;50.288;28.624;2024-03-23T03:18:35;26.64;;;16.17;;
60336;SDS011;46978;50.288;28.624;2024-03-23T03:19:37;29.43;;;16.72;;
60336;SDS011;46978;50.288;28.624;2024-03-23T03:20:39;25.31;;;15.59;;
60336;SDS011;46978;50.288;28.624;2024-03-23T03:21:41;25.41;;;15.21;;
60336;SDS011;46978;50.288;28.624;2024-03-23T03:22:42;27.04;;;15.56;;
60336;SDS011;46978;50.288;28.624;2024-03-23T03:23:44;24.69;;;15.00;;
60336;SDS011;46978;50.288;28.624;2024-03-23T03:24:46;26.33;;;15.83;;
60336;SDS011;46978;50.288;28.624;2024-03-23T03:25:47;24.87;;;15.00;;
60336;SDS011;46978;50.288;28.624;2024-03-23T03:26:49;27.64;;;15.56;;
60336;SDS011;46978;50.288;28.624;2024-03-23T03:27:51;27.91;;;15.44;;
60336;SDS011;46978;50.288;28.624;2024-03-23T03:28:52;25.72;;;15.90;;
60336;SDS011;46978;50.288;28.624;2024-03-23T03:29:54;27.99;;;15.55;;
60336;SDS011;46978;50.288;28.624;2024-03-23T03:30:56;24.54;;;14.82;;
60336;SDS011;46978;50.288;28.624;2024-03-23T03:31:58;27.83;;;15.69;;
60336;SDS011;46978;50.288;28.624;2024-03-23T03:32:59;27.59;;;15.75;;
60336;SDS011;46978;50.288;28.624;2024-03-23T03:34:01;27.34;;;15.51;;
60336;SDS011;46978;50.288;28.624;2024-03-23T03:35:03;26.13;;;14.98;;
60336;SDS011;46978;50.288;28.624;2024-03-23T03:36:05;24.14;;;14.64;;
60336;SDS011;46978;50.288;28.624;2024-03-23T03:37:07;26.82;;;15.68;;
60336;SDS011;46978;50.288;28.624;2024-03-23T03:38:09;24.91;;;15.42;;
60336;SDS011;46978;50.288;28.624;2024-03-23T03:39:10;25.12;;;14.71;;
60336;SDS011;46978;50.288;28.624;2024-03-23T03:40:12;27.56;;;15.96;;
60336;SDS011;46978;50.288;28.624;2024-03-23T03:41:14;24.63;;;14.43;;
60336;SDS011;46978;50.288;28.624;2024-03-23T03:42:16;25.66;;;15.61;;
60336;SDS011;46978;50.288;28.624;2024-03-23T03:43:17;29.93;;;15.55;;
60336;SDS011;46978;50.288;28.624;2024-03-23T03:44:19;25.54;;;14.97;;
60336;SDS011;46978;50.288;28.624;2024-03-23T03:45:21;26.27;;;14.91;;
60336;SDS011;46978;50.288;28.624;2024-03-23T03:46:22;25.76;;;14.98;;
60336;SDS011;46978;50.288;28.624;2024-03-23T03:47:24;25.57;;;14.85;;
60336;SDS011;46978;50.288;28.624;2024-03-23T03:48:25;26.69;;;14.83;;
60336;SDS011;46978;50.288;28.624;2024-03-23T03:49:28;29.28;;;15.59;;
60336;SDS011;46978;50.288;28.624;2024-03-23T03:50:29;25.52;;;15.32;;
60336;SDS011;46978;50.288;28.624;2024-03-23T03:51:31;25.19;;;14.81;;
60336;SDS011;46978;50.288;28.624;2024-03-23T03:52:32;28.06;;;15.15;;
60336;SDS011;46978;50.288;28.624;2024-03-23T03:53:34;27.86;;;15.74;;
60336;SDS011;46978;50.288;28.624;2024-03-23T03:54:36;24.26;;;14.39;;
60336;SDS011;46978;50.288;28.624;2024-03-23T03:55:37;28.09;;;15.72;;
60336;SDS011;46978;50.288;28.624;2024-03-23T03:56:39;26.27;;;14.67;;
60336;SDS011;46978;50.288;28.624;2024-03-23T03:57:41;26.86;;;15.30;;
60336;SDS011;46978;50.288;28.624;2024-03-23T03:58:43;26.39;;;14.86;;
60336;SDS011;46978;50.288;28.624;2024-03-23T03:59:44;25.25;;;15.19;;
60336;SDS011;46978;50.288;28.624;2024-03-23T04:00:46;26.54;;;15.89;;
60336;SDS011;46978;50.288;28.624;2024-03-23T04:01:48;24.49;;;14.83;;
60336;SDS011;46978;50.288;28.624;2024-03-23T04:02:50;25.83;;;14.81;;
60336;SDS011;46978;50.288;28.624;2024-03-23T04:03:51;28.95;;;15.47;;
60336;SDS011;46978;50.288;28.624;2024-03-23T04:04:53;26.71;;;16.21;;
60336;SDS011;46978;50.288;28.624;2024-03-23T04:05:54;25.63;;;14.80;;
60336;SDS011;46978;50.288;28.624;2024-03-23T04:06:59;27.84;;;14.36;;
60336;SDS011;46978;50.288;28.624;2024-03-23T04:08:01;28.47;;;16.54;;
60336;SDS011;46978;50.288;28.624;2024-03-23T04:09:03;25.96;;;14.80;;
60336;SDS011;46978;50.288;28.624;2024-03-23T04:10:05;24.27;;;14.11;;
60336;SDS011;46978;50.288;28.624;2024-03-23T04:11:08;25.11;;;15.29;;
60336;SDS011;46978;50.288;28.624;2024-03-23T04:12:09;26.06;;;15.20;;
60336;SDS011;46978;50.288;28.624;2024-03-23T04:13:11;26.54;;;14.96;;
60336;SDS011;46978;50.288;28.624;2024-03-23T04:14:15;25.57;;;15.37;;
60336;SDS011;46978;50.288;28.624;2024-03-23T04:16:38;27.28;;;14.89;;
60336;SDS011;46978;50.288;28.624;2024-03-23T04:17:39;27.64;;;15.35;;
60336;SDS011;46978;50.288;28.624;2024-03-23T04:18:41;23.13;;;14.50;;
60336;SDS011;46978;50.288;28.624;2024-03-23T04:19:43;26.34;;;15.01;;
60336;SDS011;46978;50.288;28.624;2024-03-23T04:20:45;24.77;;;14.18;;
60336;SDS011;46978;50.288;28.624;2024-03-23T04:21:47;28.75;;;14.51;;
60336;SDS011;46978;50.288;28.624;2024-03-23T04:22:49;27.76;;;14.94;;
60336;SDS011;46978;50.288;28.624;2024-03-23T04:23:50;24.32;;;14.65;;
60336;SDS011;46978;50.288;28.624;2024-03-23T04:26:49;24.69;;;14.38;;
60336;SDS011;46978;50.288;28.624;2024-03-23T04:27:51;23.21;;;14.04;;
60336;SDS011;46978;50.288;28.624;2024-03-23T04:28:53;26.34;;;14.67;;
60336;SDS011;46978;50.288;28.624;2024-03-23T04:29:55;26.46;;;15.26;;
60336;SDS011;46978;50.288;28.624;2024-03-23T04:30:56;23.97;;;14.49;;
60336;SDS011;46978;50.288;28.624;2024-03-23T04:31:58;24.86;;;14.02;;
60336;SDS011;46978;50.288;28.624;2024-03-23T04:32:59;24.78;;;14.46;;
60336;SDS011;46978;50.288;28.624;2024-03-23T04:34:01;25.01;;;14.54;;
60336;SDS011;46978;50.288;28.624;2024-03-23T04:35:03;22.79;;;14.14;;
60336;SDS011;46978;50.288;28.624;2024-03-23T04:36:06;27.63;;;14.77;;
60336;SDS011;46978;50.288;28.624;2024-03-23T04:37:08;25.99;;;14.63;;
60336;SDS011;46978;50.288;28.624;2024-03-23T04:38:10;26.90;;;14.47;;
60336;SDS011;46978;50.288;28.624;2024-03-23T04:39:11;26.01;;;14.65;;
60336;SDS011;46978;50.288;28.624;2024-03-23T04:40:13;24.26;;;14.41;;
60336;SDS011;46978;50.288;28.624;2024-03-23T04:41:15;24.34;;;14.36;;
60336;SDS011;46978;50.288;28.624;2024-03-23T04:42:16;26.37;;;14.99;;
60336;SDS011;46978;50.288;28.624;2024-03-23T04:43:18;24.97;;;14.56;;
60336;SDS011;46978;50.288;28.624;2024-03-23T04:44:19;26.41;;;14.50;;
60336;SDS011;46978;50.288;28.624;2024-03-23T04:45:21;27.19;;;14.63;;
60336;SDS011;46978;50.288;28.624;2024-03-23T04:46:22;25.16;;;14.52;;
60336;SDS011;46978;50.288;28.624;2024-03-23T04:47:24;25.55;;;13.51;;
60336;SDS011;46978;50.288;28.624;2024-03-23T04:48:26;23.84;;;13.65;;
60336;SDS011;46978;50.288;28.624;2024-03-23T04:49:27;24.56;;;14.61;;
60336;SDS011;46978;50.288;28.624;2024-03-23T04:50:29;25.06;;;13.71;;
60336;SDS011;46978;50.288;28.624;2024-03-23T04:51:34;23.99;;;14.58;;
60336;SDS011;46978;50.288;28.624;2024-03-23T04:52:37;24.17;;;14.52;;
60336;SDS011;46978;50.288;28.624;2024-03-23T04:53:39;24.71;;;14.45;;
60336;SDS011;46978;50.288;28.624;2024-03-23T04:54:40;24.59;;;13.95;;
60336;SDS011;46978;50.288;28.624;2024-03-23T04:55:42;21.27;;;12.74;;
60336;SDS011;46978;50.288;28.624;2024-03-23T04:56:45;23.51;;;14.23;;
60336;SDS011;46978;50.288;28.624;2024-03-23T04:57:47;22.63;;;13.73;;
60336;SDS011;46978;50.288;28.624;2024-03-23T04:58:48;22.74;;;13.48;;
60336;SDS011;46978;50.288;28.624;2024-03-23T04:59:50;22.24;;;13.81;;
60336;SDS011;46978;50.288;28.624;2024-03-23T05:00:55;26.98;;;15.20;;
60336;SDS011;46978;50.288;28.624;2024-03-23T05:01:58;23.51;;;14.06;;
60336;SDS011;46978;50.288;28.624;2024-03-23T05:02:59;23.85;;;14.07;;
60336;SDS011;46978;50.288;28.624;2024-03-23T05:04:01;24.82;;;13.99;;
60336;SDS011;46978;50.288;28.624;2024-03-23T05:05:02;23.03;;;13.63;;
60336;SDS011;46978;50.288;28.624;2024-03-23T05:06:04;23.89;;;13.93;;
60336;SDS011;46978;50.288;28.624;2024-03-23T05:07:06;28.27;;;14.07;;
60336;SDS011;46978;50.288;28.624;2024-03-23T05:08:08;23.05;;;13.47;;
60336;SDS011;46978;50.288;28.624;2024-03-23T05:09:09;24.81;;;14.70;;
60336;SDS011;46978;50.288;28.624;2024-03-23T05:10:11;25.60;;;14.56;;
60336;SDS011;46978;50.288;28.624;2024-03-23T05:11:13;23.84;;;13.81;;
60336;SDS011;46978;50.288;28.624;2024-03-23T05:12:14;24.03;;;14.56;;
60336;SDS011;46978;50.288;28.624;2024-03-23T05:13:16;22.73;;;14.20;;
60336;SDS011;46978;50.288;28.624;2024-03-23T05:14:17;25.87;;;13.75;;
60336;SDS011;46978;50.288;28.624;2024-03-23T05:15:19;24.68;;;14.54;;
60336;SDS011;46978;50.288;28.624;2024-03-23T05:16:21;24.69;;;14.32;;
60336;SDS011;46978;50.288;28.624;2024-03-23T05:17:22;26.96;;;14.64;;
60336;SDS011;46978;50.288;28.624;2024-03-23T05:18:24;23.76;;;14.12;;
60336;SDS011;46978;50.288;28.624;2024-03-23T05:19:26;21.69;;;13.30;;
60336;SDS011;46978;50.288;28.624;2024-03-23T05:20:27;24.64;;;13.98;;
60336;SDS011;46978;50.288;28.624;2024-03-23T05:21:29;23.59;;;13.54;;
60336;SDS011;46978;50.288;28.624;2024-03-23T05:22:30;22.96;;;13.66;;
60336;SDS011;46978;50.288;28.624;2024-03-23T05:23:32;21.70;;;12.93;;
60336;SDS011;46978;50.288;28.624;2024-03-23T05:24:33;22.06;;;13.10;;
60336;SDS011;46978;50.288;28.624;2024-03-23T05:25:35;22.49;;;13.23;;
60336;SDS011;46978;50.288;28.624;2024-03-23T05:26:37;21.34;;;13.39;;
60336;SDS011;46978;50.288;28.624;2024-03-23T05:27:39;23.02;;;13.55;;
60336;SDS011;46978;50.288;28.624;2024-03-23T05:28:40;22.84;;;13.67;;
60336;SDS011;46978;50.288;28.624;2024-03-23T05:29:42;20.79;;;13.16;;
60336;SDS011;46978;50.288;28.624;2024-03-23T05:30:44;21.59;;;13.35;;
60336;SDS011;46978;50.288;28.624;2024-03-23T05:31:49;20.51;;;12.59;;
60336;SDS011;46978;50.288;28.624;2024-03-23T05:32:52;24.21;;;13.96;;
60336;SDS011;46978;50.288;28.624;2024-03-23T05:33:54;23.93;;;13.83;;
60336;SDS011;46978;50.288;28.624;2024-03-23T05:34:56;24.69;;;13.80;;
60336;SDS011;46978;50.288;28.624;2024-03-23T05:35:58;23.34;;;13.29;;
60336;SDS011;46978;50.288;28.624;2024-03-23T05:37:01;23.06;;;14.03;;
60336;SDS011;46978;50.288;28.624;2024-03-23T05:38:03;24.04;;;13.41;;
60336;SDS011;46978;50.288;28.624;2024-03-23T05:39:05;19.93;;;12.91;;
60336;SDS011;46978;50.288;28.624;2024-03-23T05:40:07;20.45;;;13.01;;
60336;SDS011;46978;50.288;28.624;2024-03-23T05:41:09;25.21;;;13.83;;
60336;SDS011;46978;50.288;28.624;2024-03-23T05:42:11;22.12;;;13.49;;
60336;SDS011;46978;50.288;28.624;2024-03-23T05:43:13;22.81;;;13.25;;
60336;SDS011;46978;50.288;28.624;2024-03-23T05:44:15;23.83;;;14.21;;
60336;SDS011;46978;50.288;28.624;2024-03-23T05:45:16;23.20;;;13.45;;
60336;SDS011;46978;50.288;28.624;2024-03-23T05:46:18;24.45;;;13.41;;
60336;SDS011;46978;50.288;28.624;2024-03-23T05:48:41;23.17;;;13.03;;
60336;SDS011;46978;50.288;28.624;2024-03-23T05:49:43;23.15;;;13.37;;
60336;SDS011;46978;50.288;28.624;2024-03-23T05:50:45;21.82;;;13.43;;
60336;SDS011;46978;50.288;28.624;2024-03-23T05:51:46;22.22;;;12.87;;
60336;SDS011;46978;50.288;28.624;2024-03-23T05:52:48;22.82;;;13.04;;
60336;SDS011;46978;50.288;28.624;2024-03-23T05:53:50;20.31;;;13.49;;
60336;SDS011;46978;50.288;28.624;2024-03-23T05:54:52;21.91;;;13.25;;
60336;SDS011;46978;50.288;28.624;2024-03-23T05:56:00;25.06;;;13.36;;
60336;SDS011;46978;50.288;28.624;2024-03-23T05:57:04;24.59;;;13.47;;
60336;SDS011;46978;50.288;28.624;2024-03-23T05:58:06;22.54;;;13.88;;
60336;SDS011;46978;50.288;28.624;2024-03-23T05:59:08;25.09;;;13.72;;
60336;SDS011;46978;50.288;28.624;2024-03-23T06:00:10;23.08;;;13.20;;
60336;SDS011;46978;50.288;28.624;2024-03-23T06:01:12;22.50;;;12.88;;
60336;SDS011;46978;50.288;28.624;2024-03-23T06:02:14;21.98;;;13.37;;
60336;SDS011;46978;50.288;28.624;2024-03-23T06:03:15;23.36;;;12.54;;
60336;SDS011;46978;50.288;28.624;2024-03-23T06:04:17;22.24;;;13.19;;
60336;SDS011;46978;50.288;28.624;2024-03-23T06:05:18;22.54;;;13.69;;
60336;SDS011;46978;50.288;28.624;2024-03-23T06:06:20;22.91;;;12.92;;
60336;SDS011;46978;50.288;28.624;2024-03-23T06:07:21;19.56;;;12.26;;
60336;SDS011;46978;50.288;28.624;2024-03-23T06:08:23;21.53;;;12.61;;
60336;SDS011;46978;50.288;28.624;2024-03-23T06:09:24;21.05;;;13.14;;
60336;SDS011;46978;50.288;28.624;2024-03-23T06:10:26;21.47;;;12.98;;
60336;SDS011;46978;50.288;28.624;2024-03-23T06:11:28;25.04;;;13.68;;
60336;SDS011;46978;50.288;28.624;2024-03-23T06:12:29;21.39;;;12.31;;
60336;SDS011;46978;50.288;28.624;2024-03-23T06:13:31;23.54;;;13.77;;
60336;SDS011;46978;50.288;28.624;2024-03-23T06:14:34;21.73;;;13.24;;
60336;SDS011;46978;50.288;28.624;2024-03-23T06:15:36;19.87;;;12.13;;
60336;SDS011;46978;50.288;28.624;2024-03-23T06:16:38;24.35;;;13.35;;
60336;SDS011;46978;50.288;28.624;2024-03-23T06:17:39;21.44;;;12.89;;
60336;SDS011;46978;50.288;28.624;2024-03-23T06:18:41;23.83;;;12.94;;
60336;SDS011;46978;50.288;28.624;2024-03-23T06:19:42;22.44;;;13.61;;
60336;SDS011;46978;50.288;28.624;2024-03-23T06:20:44;20.88;;;13.04;;
60336;SDS011;46978;50.288;28.624;2024-03-23T06:21:46;21.91;;;12.27;;
60336;SDS011;46978;50.288;28.624;2024-03-23T06:22:47;22.11;;;12.71;;
60336;SDS011;46978;50.288;28.624;2024-03-23T06:23:51;23.36;;;12.28;;
60336;SDS011;46978;50.288;28.624;2024-03-23T06:24:54;23.19;;;13.04;;
60336;SDS011;46978;50.288;28.624;2024-03-23T06:25:55;22.26;;;12.09;;
60336;SDS011;46978;50.288;28.624;2024-03-23T06:26:57;22.61;;;12.91;;
60336;SDS011;46978;50.288;28.624;2024-03-23T06:27:59;21.78;;;12.41;;
60336;SDS011;46978;50.288;28.624;2024-03-23T06:29:00;20.57;;;12.29;;
60336;SDS011;46978;50.288;28.624;2024-03-23T06:30:02;24.02;;;12.96;;
60336;SDS011;46978;50.288;28.624;2024-03-23T06:31:08;20.75;;;12.90;;
60336;SDS011;46978;50.288;28.624;2024-03-23T06:32:11;20.92;;;13.04;;
60336;SDS011;46978;50.288;28.624;2024-03-23T06:33:13;22.04;;;12.95;;
60336;SDS011;46978;50.288;28.624;2024-03-23T06:34:14;22.79;;;12.25;;
60336;SDS011;46978;50.288;28.624;2024-03-23T06:35:16;22.41;;;12.14;;
60336;SDS011;46978;50.288;28.624;2024-03-23T06:36:18;22.74;;;12.36;;
60336;SDS011;46978;50.288;28.624;2024-03-23T06:37:19;19.30;;;11.91;;
60336;SDS011;46978;50.288;28.624;2024-03-23T06:38:21;22.36;;;11.86;;
60336;SDS011;46978;50.288;28.624;2024-03-23T06:39:22;20.40;;;12.35;;
60336;SDS011;46978;50.288;28.624;2024-03-23T06:40:24;21.16;;;11.52;;
60336;SDS011;46978;50.288;28.624;2024-03-23T06:41:26;20.14;;;11.41;;
60336;SDS011;46978;50.288;28.624;2024-03-23T06:42:27;19.29;;;11.56;;
60336;SDS011;46978;50.288;28.624;2024-03-23T06:43:29;20.42;;;11.49;;
60336;SDS011;46978;50.288;28.624;2024-03-23T06:44:30;21.20;;;11.67;;
60336;SDS011;46978;50.288;28.624;2024-03-23T06:45:32;19.43;;;11.61;;
60336;SDS011;46978;50.288;28.624;2024-03-23T06:46:34;20.29;;;12.31;;
60336;SDS011;46978;50.288;28.624;2024-03-23T06:47:36;22.09;;;12.29;;
60336;SDS011;46978;50.288;28.624;2024-03-23T06:48:37;20.00;;;11.66;;
60336;SDS011;46978;50.288;28.624;2024-03-23T06:49:39;19.98;;;10.91;;
60336;SDS011;46978;50.288;28.624;2024-03-23T06:50:40;20.77;;;12.20;;
60336;SDS011;46978;50.288;28.624;2024-03-23T06:51:42;19.60;;;11.44;;
60336;SDS011;46978;50.288;28.624;2024-03-23T06:52:44;20.41;;;11.39;;
60336;SDS011;46978;50.288;28.624;2024-03-23T06:53:45;18.74;;;10.45;;
60336;SDS011;46978;50.288;28.624;2024-03-23T06:54:46;20.46;;;12.28;;
60336;SDS011;46978;50.288;28.624;2024-03-23T06:55:51;19.66;;;11.38;;
60336;SDS011;46978;50.288;28.624;2024-03-23T06:56:54;19.99;;;11.64;;
60336;SDS011;46978;50.288;28.624;2024-03-23T06:57:55;19.41;;;11.58;;